Terminal Aerodrome Forecast
Issued by NWS Sterling, VA

Home | Current Version | Previous Version | Text Only | Print | Product List | Glossary On
Versions: 1 2 3 4 5 6 7 8 9 10 11 12 13 14 15 16
000
FTUS41 KLWX 291125
TAFMRB
TAF
KMRB 291125Z 2912/3012 26008KT 5SM -SHRA VCTS BKN035CB BKN090
     FM291400 25009KT P6SM BKN035 BKN090
     FM291700 26008KT P6SM VCTS SCT060CB
     FM292300 35006KT P6SM SCT060
     FM300400 00000KT P6SM BKN040
     FM300900 VRB03KT 4SM BR BKN015=

USA.gov is the U.S. government's official web portal to all federal, state and local government web resources and services.